sensor_id;sensor_type;location;lat;lon;timestamp;pressure;altitude;pressure_sealevel;temperature;humidity
42385;BME280;28042;43.986;22.860;2022-12-07T00:01:03;101401.28;;;4.64;100.00
42385;BME280;28042;43.986;22.860;2022-12-07T00:03:29;101451.38;;;4.97;100.00
42385;BME280;28042;43.986;22.860;2022-12-07T00:05:57;101443.66;;;4.92;100.00
42385;BME280;28042;43.986;22.860;2022-12-07T00:08:23;101378.97;;;4.62;100.00
42385;BME280;28042;43.986;22.860;2022-12-07T00:10:48;101384.09;;;4.65;100.00
42385;BME280;28042;43.986;22.860;2022-12-07T00:13:14;101443.97;;;4.99;100.00
42385;BME280;28042;43.986;22.860;2022-12-07T00:15:39;101397.59;;;4.65;100.00
42385;BME280;28042;43.986;22.860;2022-12-07T00:18:05;101444.81;;;4.99;100.00
42385;BME280;28042;43.986;22.860;2022-12-07T00:20:30;101449.22;;;4.91;100.00
42385;BME280;28042;43.986;22.860;2022-12-07T00:22:56;101403.56;;;4.59;100.00
42385;BME280;28042;43.986;22.860;2022-12-07T00:25:21;101446.22;;;5.03;100.00
42385;BME280;28042;43.986;22.860;2022-12-07T00:27:47;101440.94;;;5.02;100.00
42385;BME280;28042;43.986;22.860;2022-12-07T00:30:13;101418.63;;;5.00;100.00
42385;BME280;28042;43.986;22.860;2022-12-07T00:32:38;101409.50;;;5.01;100.00
42385;BME280;28042;43.986;22.860;2022-12-07T00:35:04;101398.56;;;4.93;100.00
42385;BME280;28042;43.986;22.860;2022-12-07T00:37:29;101421.47;;;5.08;100.00
42385;BME280;28042;43.986;22.860;2022-12-07T00:39:55;101384.75;;;4.86;100.00
42385;BME280;28042;43.986;22.860;2022-12-07T00:42:20;101387.03;;;4.91;100.00
42385;BME280;28042;43.986;22.860;2022-12-07T00:44:46;101455.19;;;5.23;100.00
42385;BME280;28042;43.986;22.860;2022-12-07T00:47:11;101441.25;;;5.08;100.00
42385;BME280;28042;43.986;22.860;2022-12-07T00:49:37;101373.69;;;4.60;100.00
42385;BME280;28042;43.986;22.860;2022-12-07T00:52:03;101390.63;;;4.72;100.00
42385;BME280;28042;43.986;22.860;2022-12-07T00:54:28;101378.13;;;4.61;100.00
42385;BME280;28042;43.986;22.860;2022-12-07T00:56:54;101416.94;;;4.79;100.00
42385;BME280;28042;43.986;22.860;2022-12-07T00:59:19;101362.63;;;4.44;100.00
42385;BME280;28042;43.986;22.860;2022-12-07T01:01:45;101419.63;;;4.60;100.00
42385;BME280;28042;43.986;22.860;2022-12-07T01:04:10;101407.81;;;4.51;100.00
42385;BME280;28042;43.986;22.860;2022-12-07T01:06:36;101338.56;;;4.21;100.00
42385;BME280;28042;43.986;22.860;2022-12-07T01:09:02;101402.28;;;4.72;100.00
42385;BME280;28042;43.986;22.860;2022-12-07T01:11:29;101351.50;;;4.57;100.00
42385;BME280;28042;43.986;22.860;2022-12-07T01:13:57;101397.56;;;4.94;100.00
42385;BME280;28042;43.986;22.860;2022-12-07T01:16:24;101423.75;;;5.13;100.00
42385;BME280;28042;43.986;22.860;2022-12-07T01:18:51;101422.03;;;5.21;100.00
42385;BME280;28042;43.986;22.860;2022-12-07T01:21:26;101392.88;;;5.05;100.00
42385;BME280;28042;43.986;22.860;2022-12-07T01:23:52;101415.72;;;5.21;100.00
42385;BME280;28042;43.986;22.860;2022-12-07T01:26:22;101341.25;;;4.79;100.00
42385;BME280;28042;43.986;22.860;2022-12-07T01:28:48;101403.66;;;5.15;100.00
42385;BME280;28042;43.986;22.860;2022-12-07T01:31:20;101383.31;;;5.11;100.00
42385;BME280;28042;43.986;22.860;2022-12-07T01:33:48;101396.56;;;4.95;100.00
42385;BME280;28042;43.986;22.860;2022-12-07T01:36:18;101398.16;;;4.88;100.00
42385;BME280;28042;43.986;22.860;2022-12-07T01:38:45;101401.28;;;4.73;100.00
42385;BME280;28042;43.986;22.860;2022-12-07T01:41:12;101406.41;;;4.76;100.00
42385;BME280;28042;43.986;22.860;2022-12-07T01:44:11;101410.38;;;4.92;100.00
42385;BME280;28042;43.986;22.860;2022-12-07T01:46:37;101344.84;;;4.61;100.00
42385;BME280;28042;43.986;22.860;2022-12-07T01:49:05;101402.56;;;4.89;100.00
42385;BME280;28042;43.986;22.860;2022-12-07T01:51:32;101360.63;;;4.65;100.00
42385;BME280;28042;43.986;22.860;2022-12-07T01:53:58;101392.75;;;4.88;100.00
42385;BME280;28042;43.986;22.860;2022-12-07T01:56:26;101395.72;;;4.85;100.00
42385;BME280;28042;43.986;22.860;2022-12-07T01:58:54;101336.16;;;4.57;100.00
42385;BME280;28042;43.986;22.860;2022-12-07T02:01:21;101392.16;;;4.94;100.00
42385;BME280;28042;43.986;22.860;2022-12-07T02:03:48;101390.19;;;4.96;100.00
42385;BME280;28042;43.986;22.860;2022-12-07T02:06:17;101388.72;;;5.01;100.00
42385;BME280;28042;43.986;22.860;2022-12-07T02:08:44;101377.06;;;5.01;100.00
42385;BME280;28042;43.986;22.860;2022-12-07T02:11:10;101346.34;;;4.92;100.00
42385;BME280;28042;43.986;22.860;2022-12-07T02:13:38;101380.44;;;5.22;100.00
42385;BME280;28042;43.986;22.860;2022-12-07T02:19:45;101363.94;;;5.16;100.00
42385;BME280;28042;43.986;22.860;2022-12-07T02:25:14;101373.59;;;5.18;100.00
42385;BME280;28042;43.986;22.860;2022-12-07T02:30:34;101319.34;;;4.82;100.00
42385;BME280;28042;43.986;22.860;2022-12-07T02:33:07;101365.94;;;5.14;100.00
42385;BME280;28042;43.986;22.860;2022-12-07T02:36:00;101359.00;;;5.01;100.00
42385;BME280;28042;43.986;22.860;2022-12-07T02:38:34;101315.38;;;4.67;100.00
42385;BME280;28042;43.986;22.860;2022-12-07T02:41:10;101348.06;;;4.93;100.00
42385;BME280;28042;43.986;22.860;2022-12-07T02:43:43;101361.66;;;5.11;100.00
42385;BME280;28042;43.986;22.860;2022-12-07T02:46:14;101325.31;;;4.76;100.00
42385;BME280;28042;43.986;22.860;2022-12-07T02:48:43;101339.28;;;4.72;100.00
42385;BME280;28042;43.986;22.860;2022-12-07T02:51:09;101302.19;;;4.45;100.00
42385;BME280;28042;43.986;22.860;2022-12-07T02:53:40;101267.66;;;4.39;100.00
42385;BME280;28042;43.986;22.860;2022-12-07T03:07:05;101284.66;;;4.68;100.00
42385;BME280;28042;43.986;22.860;2022-12-07T03:12:20;101339.28;;;4.62;100.00
42385;BME280;28042;43.986;22.860;2022-12-07T03:14:53;101323.78;;;4.64;100.00
42385;BME280;28042;43.986;22.860;2022-12-07T03:17:27;101322.91;;;4.73;100.00
42385;BME280;28042;43.986;22.860;2022-12-07T03:19:58;101263.63;;;4.62;100.00
42385;BME280;28042;43.986;22.860;2022-12-07T03:22:25;101325.81;;;5.09;100.00
42385;BME280;28042;43.986;22.860;2022-12-07T03:24:58;101270.00;;;4.80;100.00
42385;BME280;28042;43.986;22.860;2022-12-07T03:27:43;101303.22;;;5.00;100.00
42385;BME280;28042;43.986;22.860;2022-12-07T03:30:25;101327.66;;;5.08;100.00
42385;BME280;28042;43.986;22.860;2022-12-07T03:32:58;101340.47;;;5.16;100.00
42385;BME280;28042;43.986;22.860;2022-12-07T03:35:44;101261.47;;;4.75;100.00
42385;BME280;28042;43.986;22.860;2022-12-07T03:38:21;101283.50;;;4.80;100.00
42385;BME280;28042;43.986;22.860;2022-12-07T03:43:46;101252.72;;;4.54;100.00
42385;BME280;28042;43.986;22.860;2022-12-07T03:46:31;101313.06;;;4.92;100.00
42385;BME280;28042;43.986;22.860;2022-12-07T03:49:02;101309.50;;;4.91;100.00
42385;BME280;28042;43.986;22.860;2022-12-07T03:51:39;101316.19;;;4.97;100.00
42385;BME280;28042;43.986;22.860;2022-12-07T03:54:23;101310.47;;;5.00;100.00
42385;BME280;28042;43.986;22.860;2022-12-07T03:56:50;101258.63;;;4.67;100.00
42385;BME280;28042;43.986;22.860;2022-12-07T03:59:18;101252.53;;;4.65;100.00
42385;BME280;28042;43.986;22.860;2022-12-07T04:01:47;101315.06;;;4.90;100.00
42385;BME280;28042;43.986;22.860;2022-12-07T04:04:17;101272.19;;;4.48;100.00
42385;BME280;28042;43.986;22.860;2022-12-07T04:06:42;101329.00;;;4.85;100.00
42385;BME280;28042;43.986;22.860;2022-12-07T04:09:08;101276.00;;;4.55;100.00
42385;BME280;28042;43.986;22.860;2022-12-07T04:11:33;101290.66;;;4.62;100.00
42385;BME280;28042;43.986;22.860;2022-12-07T04:13:59;101349.19;;;4.91;100.00
42385;BME280;28042;43.986;22.860;2022-12-07T04:16:43;101358.56;;;5.06;100.00
42385;BME280;28042;43.986;22.860;2022-12-07T04:19:08;101336.50;;;5.01;100.00
42385;BME280;28042;43.986;22.860;2022-12-07T04:21:34;101345.06;;;5.06;100.00
42385;BME280;28042;43.986;22.860;2022-12-07T04:23:59;101285.81;;;4.56;100.00
42385;BME280;28042;43.986;22.860;2022-12-07T04:26:25;101337.00;;;4.87;100.00
42385;BME280;28042;43.986;22.860;2022-12-07T04:28:50;101281.84;;;4.50;100.00
42385;BME280;28042;43.986;22.860;2022-12-07T04:31:16;101269.63;;;4.56;100.00
42385;BME280;28042;43.986;22.860;2022-12-07T04:33:41;101264.75;;;4.60;100.00
42385;BME280;28042;43.986;22.860;2022-12-07T04:36:07;101281.06;;;4.77;100.00
42385;BME280;28042;43.986;22.860;2022-12-07T04:38:32;101297.38;;;5.05;100.00
42385;BME280;28042;43.986;22.860;2022-12-07T04:40:58;101293.69;;;5.06;100.00
42385;BME280;28042;43.986;22.860;2022-12-07T04:43:23;101252.38;;;4.67;100.00
42385;BME280;28042;43.986;22.860;2022-12-07T04:45:49;101287.72;;;4.93;100.00
42385;BME280;28042;43.986;22.860;2022-12-07T04:48:15;101250.41;;;4.59;100.00
42385;BME280;28042;43.986;22.860;2022-12-07T04:50:41;101296.53;;;4.95;100.00
42385;BME280;28042;43.986;22.860;2022-12-07T04:53:06;101314.69;;;5.12;100.00
42385;BME280;28042;43.986;22.860;2022-12-07T04:55:32;101267.56;;;4.87;100.00
42385;BME280;28042;43.986;22.860;2022-12-07T04:57:57;101265.81;;;4.86;100.00
42385;BME280;28042;43.986;22.860;2022-12-07T05:00:23;101313.84;;;5.21;100.00
42385;BME280;28042;43.986;22.860;2022-12-07T05:02:48;101285.56;;;5.06;100.00
42385;BME280;28042;43.986;22.860;2022-12-07T05:05:13;101316.78;;;5.28;100.00
42385;BME280;28042;43.986;22.860;2022-12-07T05:07:39;101244.97;;;4.78;100.00
42385;BME280;28042;43.986;22.860;2022-12-07T05:10:05;101240.03;;;4.54;100.00
42385;BME280;28042;43.986;22.860;2022-12-07T05:12:31;101276.41;;;4.60;100.00
42385;BME280;28042;43.986;22.860;2022-12-07T05:14:56;101265.38;;;4.44;100.00
42385;BME280;28042;43.986;22.860;2022-12-07T05:17:22;101225.59;;;4.27;100.00
42385;BME280;28042;43.986;22.860;2022-12-07T05:19:47;101209.00;;;4.02;100.00
42385;BME280;28042;43.986;22.860;2022-12-07T05:22:13;101234.84;;;4.14;100.00
42385;BME280;28042;43.986;22.860;2022-12-07T05:24:39;101303.59;;;4.59;100.00
42385;BME280;28042;43.986;22.860;2022-12-07T05:27:04;101285.66;;;4.67;100.00
42385;BME280;28042;43.986;22.860;2022-12-07T05:29:30;101257.09;;;4.55;100.00
42385;BME280;28042;43.986;22.860;2022-12-07T05:31:55;101242.16;;;4.51;100.00
42385;BME280;28042;43.986;22.860;2022-12-07T05:34:21;101249.72;;;4.47;100.00
42385;BME280;28042;43.986;22.860;2022-12-07T05:36:46;101313.22;;;4.90;100.00
42385;BME280;28042;43.986;22.860;2022-12-07T05:39:12;101280.31;;;4.95;100.00
42385;BME280;28042;43.986;22.860;2022-12-07T05:41:37;101254.16;;;4.86;100.00
42385;BME280;28042;43.986;22.860;2022-12-07T05:44:21;101229.72;;;4.77;100.00
42385;BME280;28042;43.986;22.860;2022-12-07T05:46:46;101302.75;;;5.15;100.00
42385;BME280;28042;43.986;22.860;2022-12-07T05:49:12;101236.88;;;4.78;100.00
42385;BME280;28042;43.986;22.860;2022-12-07T05:51:37;101298.09;;;5.07;100.00
42385;BME280;28042;43.986;22.860;2022-12-07T05:54:03;101283.09;;;5.22;100.00
42385;BME280;28042;43.986;22.860;2022-12-07T05:56:28;101238.06;;;4.94;100.00
42385;BME280;28042;43.986;22.860;2022-12-07T05:58:54;101274.56;;;5.17;100.00
42385;BME280;28042;43.986;22.860;2022-12-07T06:01:38;101225.41;;;4.94;100.00
42385;BME280;28042;43.986;22.860;2022-12-07T06:04:04;101270.41;;;5.23;100.00
42385;BME280;28042;43.986;22.860;2022-12-07T06:06:29;101279.38;;;5.23;100.00
42385;BME280;28042;43.986;22.860;2022-12-07T06:08:54;101286.28;;;5.35;100.00
42385;BME280;28042;43.986;22.860;2022-12-07T06:11:20;101216.84;;;4.99;100.00
42385;BME280;28042;43.986;22.860;2022-12-07T06:14:04;101223.13;;;4.99;100.00
42385;BME280;28042;43.986;22.860;2022-12-07T06:16:29;101277.38;;;5.25;100.00
42385;BME280;28042;43.986;22.860;2022-12-07T06:18:55;101280.56;;;5.38;100.00
42385;BME280;28042;43.986;22.860;2022-12-07T06:21:21;101282.41;;;5.38;100.00
42385;BME280;28042;43.986;22.860;2022-12-07T06:23:46;101288.41;;;5.42;100.00
42385;BME280;28042;43.986;22.860;2022-12-07T06:26:13;101220.78;;;5.14;100.00
42385;BME280;28042;43.986;22.860;2022-12-07T06:28:38;101273.41;;;5.47;100.00
42385;BME280;28042;43.986;22.860;2022-12-07T06:31:04;101260.75;;;5.48;100.00
42385;BME280;28042;43.986;22.860;2022-12-07T06:33:29;101215.66;;;5.11;100.00
42385;BME280;28042;43.986;22.860;2022-12-07T06:35:55;101222.75;;;5.22;100.00
42385;BME280;28042;43.986;22.860;2022-12-07T06:38:21;101199.16;;;5.14;100.00
42385;BME280;28042;43.986;22.860;2022-12-07T06:40:46;101275.06;;;5.58;100.00
42385;BME280;28042;43.986;22.860;2022-12-07T06:43:13;101274.91;;;5.59;100.00
42385;BME280;28042;43.986;22.860;2022-12-07T06:45:38;101222.47;;;5.15;100.00
42385;BME280;28042;43.986;22.860;2022-12-07T06:48:05;101219.88;;;4.86;100.00
42385;BME280;28042;43.986;22.860;2022-12-07T06:50:30;101236.09;;;4.96;100.00
42385;BME280;28042;43.986;22.860;2022-12-07T06:52:56;101287.91;;;5.19;100.00
42385;BME280;28042;43.986;22.860;2022-12-07T06:55:21;101292.69;;;5.34;100.00
42385;BME280;28042;43.986;22.860;2022-12-07T06:57:47;101284.16;;;5.29;100.00
42385;BME280;28042;43.986;22.860;2022-12-07T07:00:13;101232.38;;;4.97;100.00
42385;BME280;28042;43.986;22.860;2022-12-07T07:02:39;101289.09;;;5.16;100.00
42385;BME280;28042;43.986;22.860;2022-12-07T07:05:05;101232.53;;;4.86;100.00
42385;BME280;28042;43.986;22.860;2022-12-07T07:07:30;101234.41;;;4.85;100.00
42385;BME280;28042;43.986;22.860;2022-12-07T07:09:56;101232.53;;;4.95;100.00
42385;BME280;28042;43.986;22.860;2022-12-07T07:12:21;101286.06;;;5.19;100.00
42385;BME280;28042;43.986;22.860;2022-12-07T07:14:47;101296.66;;;5.13;100.00
42385;BME280;28042;43.986;22.860;2022-12-07T07:17:12;101246.69;;;4.70;100.00
42385;BME280;28042;43.986;22.860;2022-12-07T07:19:38;101304.94;;;4.92;100.00
42385;BME280;28042;43.986;22.860;2022-12-07T07:22:03;101247.44;;;4.43;100.00
42385;BME280;28042;43.986;22.860;2022-12-07T07:24:29;101248.31;;;4.43;100.00
42385;BME280;28042;43.986;22.860;2022-12-07T07:26:55;101305.88;;;4.63;100.00
42385;BME280;28042;43.986;22.860;2022-12-07T07:29:20;101242.38;;;4.20;100.00
42385;BME280;28042;43.986;22.860;2022-12-07T07:31:46;101297.50;;;4.47;100.00
42385;BME280;28042;43.986;22.860;2022-12-07T07:34:11;101275.88;;;4.47;100.00
42385;BME280;28042;43.986;22.860;2022-12-07T07:36:37;101249.47;;;4.31;100.00
42385;BME280;28042;43.986;22.860;2022-12-07T07:39:03;101309.69;;;4.80;100.00
42385;BME280;28042;43.986;22.860;2022-12-07T07:41:28;101240.31;;;4.51;100.00
42385;BME280;28042;43.986;22.860;2022-12-07T07:43:54;101300.00;;;4.68;100.00
42385;BME280;28042;43.986;22.860;2022-12-07T07:46:19;101300.16;;;4.66;100.00
42385;BME280;28042;43.986;22.860;2022-12-07T07:48:45;101307.41;;;4.75;100.00
42385;BME280;28042;43.986;22.860;2022-12-07T07:51:10;101240.63;;;4.39;100.00
42385;BME280;28042;43.986;22.860;2022-12-07T07:53:36;101255.44;;;4.44;100.00
42385;BME280;28042;43.986;22.860;2022-12-07T07:56:01;101306.88;;;4.62;100.00
42385;BME280;28042;43.986;22.860;2022-12-07T07:58:27;101256.41;;;4.34;100.00
42385;BME280;28042;43.986;22.860;2022-12-07T08:00:52;101230.72;;;4.10;100.00
42385;BME280;28042;43.986;22.860;2022-12-07T08:03:18;101254.84;;;4.31;100.00
42385;BME280;28042;43.986;22.860;2022-12-07T08:05:44;101308.97;;;4.68;100.00
42385;BME280;28042;43.986;22.860;2022-12-07T08:08:09;101296.56;;;4.85;100.00
42385;BME280;28042;43.986;22.860;2022-12-07T08:10:35;101246.84;;;4.59;100.00
42385;BME280;28042;43.986;22.860;2022-12-07T08:13:02;101311.22;;;4.82;100.00
42385;BME280;28042;43.986;22.860;2022-12-07T08:15:40;101319.03;;;4.95;100.00
42385;BME280;28042;43.986;22.860;2022-12-07T08:18:05;101308.34;;;4.94;100.00
42385;BME280;28042;43.986;22.860;2022-12-07T08:20:32;101253.09;;;4.59;100.00
42385;BME280;28042;43.986;22.860;2022-12-07T08:22:58;101284.38;;;4.71;100.00
42385;BME280;28042;43.986;22.860;2022-12-07T08:25:24;101314.50;;;4.76;100.00
42385;BME280;28042;43.986;22.860;2022-12-07T08:27:51;101312.41;;;4.70;100.00
42385;BME280;28042;43.986;22.860;2022-12-07T08:30:17;101279.16;;;4.41;100.00
42385;BME280;28042;43.986;22.860;2022-12-07T08:32:46;101300.19;;;4.47;100.00
42385;BME280;28042;43.986;22.860;2022-12-07T08:35:13;101317.25;;;4.47;100.00
42385;BME280;28042;43.986;22.860;2022-12-07T08:37:38;101300.50;;;4.44;100.00
42385;BME280;28042;43.986;22.860;2022-12-07T08:40:08;101320.25;;;4.44;100.00
42385;BME280;28042;43.986;22.860;2022-12-07T08:42:34;101320.97;;;4.46;100.00
42385;BME280;28042;43.986;22.860;2022-12-07T08:45:13;101320.25;;;4.54;100.00
42385;BME280;28042;43.986;22.860;2022-12-07T08:48:06;101316.69;;;4.63;100.00
42385;BME280;28042;43.986;22.860;2022-12-07T08:50:33;101315.13;;;4.32;100.00
42385;BME280;28042;43.986;22.860;2022-12-07T08:53:00;101317.81;;;4.41;100.00
42385;BME280;28042;43.986;22.860;2022-12-07T08:55:27;101307.03;;;4.32;100.00
42385;BME280;28042;43.986;22.860;2022-12-07T08:57:53;101257.44;;;4.13;100.00
42385;BME280;28042;43.986;22.860;2022-12-07T09:00:19;101301.88;;;4.58;100.00
42385;BME280;28042;43.986;22.860;2022-12-07T09:02:45;101296.94;;;4.53;100.00
42385;BME280;28042;43.986;22.860;2022-12-07T09:05:11;101289.38;;;4.47;100.00
42385;BME280;28042;43.986;22.860;2022-12-07T09:07:38;101210.41;;;4.06;100.00
42385;BME280;28042;43.986;22.860;2022-12-07T09:10:04;101222.16;;;4.24;100.00
42385;BME280;28042;43.986;22.860;2022-12-07T09:12:30;101213.09;;;4.35;100.00
42385;BME280;28042;43.986;22.860;2022-12-07T09:14:56;101262.75;;;4.71;100.00
42385;BME280;28042;43.986;22.860;2022-12-07T09:17:21;101271.81;;;4.90;100.00
42385;BME280;28042;43.986;22.860;2022-12-07T09:19:47;101255.34;;;4.73;100.00
42385;BME280;28042;43.986;22.860;2022-12-07T09:22:12;101194.09;;;4.64;100.00
42385;BME280;28042;43.986;22.860;2022-12-07T09:24:38;101181.69;;;4.71;100.00
42385;BME280;28042;43.986;22.860;2022-12-07T09:27:03;101178.47;;;4.86;100.00
42385;BME280;28042;43.986;22.860;2022-12-07T09:29:29;101219.06;;;5.13;100.00
42385;BME280;28042;43.986;22.860;2022-12-07T09:31:55;101254.97;;;5.60;100.00
42385;BME280;28042;43.986;22.860;2022-12-07T09:34:20;101241.28;;;5.62;100.00
42385;BME280;28042;43.986;22.860;2022-12-07T09:36:46;101231.38;;;5.53;100.00
42385;BME280;28042;43.986;22.860;2022-12-07T09:39:12;101230.84;;;5.67;100.00
42385;BME280;28042;43.986;22.860;2022-12-07T09:41:39;101156.97;;;5.21;100.00
42385;BME280;28042;43.986;22.860;2022-12-07T09:44:10;101228.75;;;5.61;100.00
42385;BME280;28042;43.986;22.860;2022-12-07T09:46:39;101217.06;;;5.60;100.00
42385;BME280;28042;43.986;22.860;2022-12-07T09:49:14;101216.47;;;5.66;100.00
42385;BME280;28042;43.986;22.860;2022-12-07T09:51:41;101168.34;;;5.25;100.00
42385;BME280;28042;43.986;22.860;2022-12-07T09:54:09;101224.75;;;5.65;100.00
42385;BME280;28042;43.986;22.860;2022-12-07T09:56:37;101211.16;;;5.47;100.00
42385;BME280;28042;43.986;22.860;2022-12-07T09:59:03;101151.59;;;5.11;100.00
42385;BME280;28042;43.986;22.860;2022-12-07T10:01:31;101204.00;;;5.56;100.00
42385;BME280;28042;43.986;22.860;2022-12-07T10:04:10;101204.47;;;5.69;100.00
42385;BME280;28042;43.986;22.860;2022-12-07T10:06:38;101176.41;;;5.70;100.00
42385;BME280;28042;43.986;22.860;2022-12-07T10:09:11;101122.91;;;5.46;100.00
42385;BME280;28042;43.986;22.860;2022-12-07T10:12:07;101191.72;;;5.79;100.00
42385;BME280;28042;43.986;22.860;2022-12-07T10:14:37;101193.66;;;5.69;100.00
42385;BME280;28042;43.986;22.860;2022-12-07T10:17:34;101185.38;;;5.53;100.00
42385;BME280;28042;43.986;22.860;2022-12-07T10:20:25;101187.56;;;5.67;100.00
42385;BME280;28042;43.986;22.860;2022-12-07T10:23:00;101168.91;;;5.64;100.00
42385;BME280;28042;43.986;22.860;2022-12-07T10:25:32;101169.63;;;5.84;100.00
42385;BME280;28042;43.986;22.860;2022-12-07T10:28:00;101108.59;;;5.54;100.00
42385;BME280;28042;43.986;22.860;2022-12-07T10:30:26;101160.56;;;6.11;100.00
42385;BME280;28042;43.986;22.860;2022-12-07T10:32:52;101152.78;;;6.16;100.00
42385;BME280;28042;43.986;22.860;2022-12-07T10:35:29;101142.97;;;6.15;100.00
42385;BME280;28042;43.986;22.860;2022-12-07T10:37:58;101146.66;;;6.32;100.00
42385;BME280;28042;43.986;22.860;2022-12-07T10:40:35;101145.56;;;6.50;100.00
42385;BME280;28042;43.986;22.860;2022-12-07T10:43:05;101156.16;;;6.62;100.00
42385;BME280;28042;43.986;22.860;2022-12-07T10:45:32;101133.88;;;6.24;100.00
42385;BME280;28042;43.986;22.860;2022-12-07T11:01:29;101156.59;;;6.05;100.00
42385;BME280;28042;43.986;22.860;2022-12-07T11:07:18;101136.97;;;6.29;100.00
42385;BME280;28042;43.986;22.860;2022-12-07T11:09:57;101128.84;;;6.29;100.00
42385;BME280;28042;43.986;22.860;2022-12-07T11:23:27;101134.06;;;6.48;100.00
42385;BME280;28042;43.986;22.860;2022-12-07T11:25:58;101125.97;;;6.57;100.00
42385;BME280;28042;43.986;22.860;2022-12-07T11:33:49;101101.47;;;6.40;100.00
42385;BME280;28042;43.986;22.860;2022-12-07T11:39:14;101063.16;;;6.01;100.00
42385;BME280;28042;43.986;22.860;2022-12-07T11:41:42;101076.50;;;6.20;100.00
42385;BME280;28042;43.986;22.860;2022-12-07T11:46:45;101111.91;;;6.27;100.00
42385;BME280;28042;43.986;22.860;2022-12-07T11:49:19;101118.06;;;6.11;100.00
42385;BME280;28042;43.986;22.860;2022-12-07T11:51:49;101122.09;;;6.07;100.00
42385;BME280;28042;43.986;22.860;2022-12-07T11:54:30;101074.88;;;5.84;100.00
42385;BME280;28042;43.986;22.860;2022-12-07T11:57:03;101055.78;;;5.67;100.00
42385;BME280;28042;43.986;22.860;2022-12-07T11:59:42;101060.03;;;5.70;100.00
42385;BME280;28042;43.986;22.860;2022-12-07T12:02:34;101107.13;;;6.21;100.00
42385;BME280;28042;43.986;22.860;2022-12-07T12:05:21;101111.25;;;6.33;100.00
42385;BME280;28042;43.986;22.860;2022-12-07T12:10:34;101056.25;;;6.07;100.00
42385;BME280;28042;43.986;22.860;2022-12-07T12:13:42;101110.94;;;6.62;100.00
42385;BME280;28042;43.986;22.860;2022-12-07T12:16:15;101110.88;;;6.54;100.00
42385;BME280;28042;43.986;22.860;2022-12-07T12:19:01;101095.38;;;6.38;100.00
42385;BME280;28042;43.986;22.860;2022-12-07T12:21:32;101102.81;;;6.36;100.00
42385;BME280;28042;43.986;22.860;2022-12-07T12:24:12;101042.72;;;5.89;100.00
42385;BME280;28042;43.986;22.860;2022-12-07T12:26:39;101052.44;;;5.91;100.00
42385;BME280;28042;43.986;22.860;2022-12-07T12:29:42;101045.84;;;5.94;100.00
42385;BME280;28042;43.986;22.860;2022-12-07T12:32:18;101027.66;;;5.86;100.00
42385;BME280;28042;43.986;22.860;2022-12-07T12:35:26;101040.19;;;5.87;100.00
42385;BME280;28042;43.986;22.860;2022-12-07T12:37:53;101095.97;;;6.24;100.00
42385;BME280;28042;43.986;22.860;2022-12-07T12:42:57;101098.81;;;6.48;100.00
42385;BME280;28042;43.986;22.860;2022-12-07T12:45:30;101093.72;;;6.45;100.00
42385;BME280;28042;43.986;22.860;2022-12-07T12:48:07;101039.38;;;6.13;100.00
42385;BME280;28042;43.986;22.860;2022-12-07T12:54:03;101101.94;;;6.28;100.00
42385;BME280;28042;43.986;22.860;2022-12-07T12:59:31;101094.72;;;6.10;100.00
42385;BME280;28042;43.986;22.860;2022-12-07T13:07:51;101102.03;;;6.18;100.00
42385;BME280;28042;43.986;22.860;2022-12-07T13:15:44;101028.81;;;5.58;100.00
42385;BME280;28042;43.986;22.860;2022-12-07T13:23:58;101093.50;;;5.87;100.00
42385;BME280;28042;43.986;22.860;2022-12-07T13:34:37;101082.75;;;5.95;100.00
42385;BME280;28042;43.986;22.860;2022-12-07T13:39:59;101023.94;;;5.61;100.00
42385;BME280;28042;43.986;22.860;2022-12-07T13:42:33;101029.25;;;5.71;100.00
42385;BME280;28042;43.986;22.860;2022-12-07T13:45:00;101094.88;;;6.09;100.00
42385;BME280;28042;43.986;22.860;2022-12-07T13:47:40;101046.13;;;5.65;100.00
42385;BME280;28042;43.986;22.860;2022-12-07T13:50:28;101043.16;;;5.76;100.00
42385;BME280;28042;43.986;22.860;2022-12-07T13:53:01;101029.94;;;5.73;100.00
42385;BME280;28042;43.986;22.860;2022-12-07T13:55:28;101038.88;;;5.65;100.00
42385;BME280;28042;43.986;22.860;2022-12-07T13:57:55;101076.81;;;5.91;100.00
42385;BME280;28042;43.986;22.860;2022-12-07T14:00:23;101102.88;;;5.92;100.00
42385;BME280;28042;43.986;22.860;2022-12-07T14:03:04;101084.19;;;5.89;100.00
42385;BME280;28042;43.986;22.860;2022-12-07T14:06:07;101091.94;;;5.84;100.00
42385;BME280;28042;43.986;22.860;2022-12-07T14:08:33;101100.53;;;5.98;100.00
42385;BME280;28042;43.986;22.860;2022-12-07T14:10:59;101079.03;;;5.78;100.00
42385;BME280;28042;43.986;22.860;2022-12-07T14:13:35;101104.09;;;5.80;100.00
42385;BME280;28042;43.986;22.860;2022-12-07T14:16:03;101030.72;;;5.39;100.00
42385;BME280;28042;43.986;22.860;2022-12-07T14:18:35;101099.94;;;5.68;100.00
42385;BME280;28042;43.986;22.860;2022-12-07T14:21:27;101098.25;;;5.67;100.00
42385;BME280;28042;43.986;22.860;2022-12-07T14:24:14;101071.97;;;5.42;100.00
42385;BME280;28042;43.986;22.860;2022-12-07T14:26:40;101089.19;;;5.58;100.00
42385;BME280;28042;43.986;22.860;2022-12-07T14:31:52;101027.16;;;5.21;100.00
42385;BME280;28042;43.986;22.860;2022-12-07T14:34:20;101096.56;;;5.66;100.00
42385;BME280;28042;43.986;22.860;2022-12-07T14:36:45;101072.03;;;5.67;100.00
42385;BME280;28042;43.986;22.860;2022-12-07T14:39:11;101047.38;;;5.53;100.00